Latest Weather Observations for Noarlunga

IDS60901

Issued at 10:31 am CST Tuesday 26 May 2020 (issued every 10 minutes, with the page automatically refreshed every 10 minutes)

About weather observations | Map of Adelaide area stations | Latest observations for Adelaide area | Other Formats
Station Details ID: 023885 Name: NOARLUNGA Lat: -35.16 Lon: 138.51 Height: 55.0 m
Data from the previous 72 hours. | See also: Recent months at Noarlunga
Date/Time
CST
Temp
°C
App
Temp
°C
Dew
Point
°C
Rel
Hum
%
Delta-T
°C
Wind Press
QNH
hPa
Press
MSL
hPa
Rain since
9am
mm
Dir  Spd
km/h
Gust
km/h
Spd
kts
Gust
kts
26/10:30am 14.6 9.4 5.4 54 4.4 N 22 35 12 19 - - 0.0
26/10:00am 14.1 8.2 5.7 57 4.0 N 26 39 14 21 - - 0.0
26/09:30am 13.4 7.8 5.3 58 3.8 N 24 33 13 18 - - 0.0
26/09:00am 12.6 6.2 5.1 60 3.5 N 28 43 15 23 - - 0.0
26/08:30am 12.6 7.7 5.1 60 3.5 NNE 20 30 11 16 - - 0.0
26/08:00am 11.5 6.9 5.4 66 2.8 NNE 19 32 10 17 - - 0.0
26/07:30am 11.1 6.5 5.4 68 2.6 NNE 19 30 10 16 - - 0.0
26/07:00am 10.7 6.8 5.3 69 2.5 NNE 15 24 8 13 - - 0.0
26/06:30am 10.8 6.5 5.3 69 2.5 NNE 17 28 9 15 - - 0.0
26/06:00am 10.7 6.5 5.5 70 2.4 NNE 17 24 9 13 - - 0.0
26/05:30am 10.3 6.8 5.5 72 2.2 NNE 13 22 7 12 - - 0.0
26/05:00am 9.6 6.2 6.0 78 1.7 NNE 13 22 7 12 - - 0.0
26/04:30am 7.7 5.4 5.7 87 0.9 NNE 7 13 4 7 - - 0.0
26/04:00am 7.0 4.6 5.3 89 0.8 ENE 7 9 4 5 - - 0.0
26/03:30am 7.2 4.8 5.2 87 0.9 ENE 7 9 4 5 - - 0.0
26/03:00am 7.8 5.4 5.3 84 1.1 ENE 7 11 4 6 - - 0.0
26/02:30am 8.0 5.7 5.5 84 1.1 ENE 7 11 4 6 - - 0.0
26/02:00am 8.2 6.1 5.7 84 1.1 ENE 6 9 3 5 - - 0.0
26/01:30am 8.6 6.3 5.9 83 1.2 ENE 7 11 4 6 - - 0.0
26/01:00am 8.0 5.0 5.8 86 1.0 ENE 11 19 6 10 - - 0.0
26/12:30am 8.0 5.3 5.6 85 1.1 ENE 9 13 5 7 - - 0.0
26/12:00am 8.2 5.9 5.8 85 1.1 NE 7 9 4 5 - - 0.0
 
Date/Time
CST
Temp
°C
App
Temp
°C
Dew
Point
°C
Rel
Hum
%
Delta-T
°C
Wind Press
QNH
hPa
Press
MSL
hPa
Rain since
9am
mm
Dir  Spd
km/h
Gust
km/h
Spd
kts
Gust
kts
25/11:30pm 7.5 6.5 5.5 87 0.9 CALM 0 4 0 2 - - 0.0
25/11:00pm 8.3 6.2 5.6 83 1.2 N 6 9 3 5 - - 0.0
25/10:30pm 8.8 6.6 5.5 80 1.5 E 6 7 3 4 - - 0.0
25/10:00pm 10.2 8.5 5.8 74 2.0 NE 4 6 2 3 - - 0.0
25/09:30pm 9.7 7.0 5.7 76 1.8 E 9 13 5 7 - - 0.0
25/09:00pm 9.6 6.9 5.8 77 1.7 E 9 13 5 7 - - 0.0
25/08:30pm 9.7 7.1 5.9 77 1.7 E 9 13 5 7 - - 0.0
25/08:00pm 10.4 7.8 6.0 74 2.0 ENE 9 15 5 8 - - 0.0
25/07:30pm 10.7 8.2 6.5 75 2.0 ENE 9 15 5 8 - - 0.0
25/07:00pm 10.1 8.1 7.3 83 1.3 E 7 13 4 7 - - 0.0
25/06:30pm 10.1 8.5 7.9 86 1.1 ENE 6 7 3 4 - - 0.0
25/06:00pm 10.5 10.0 7.7 83 1.4 CALM 0 0 0 0 - - 0.0
25/05:30pm 11.2 10.7 7.9 80 1.6 CALM 0 2 0 1 - - 0.0
25/05:00pm 12.2 11.7 7.7 74 2.2 CALM 0 4 0 2 - - 0.0
25/04:30pm 12.5 11.2 7.6 72 2.4 SSE 4 4 2 2 - - 0.0
25/04:00pm 13.2 12.1 7.0 66 3.0 WSW 2 6 1 3 - - 0.0
25/03:30pm 13.4 11.6 7.0 65 3.1 WSW 6 9 3 5 - - 0.0
25/03:00pm 13.4 11.9 7.0 65 3.1 WSW 4 7 2 4 - - 0.0
25/02:30pm 13.5 11.5 6.4 62 3.4 WNW 6 11 3 6 - - 0.0
25/02:00pm 13.2 11.2 6.3 63 3.3 N 6 9 3 5 - - 0.0
25/01:30pm 12.5 10.0 6.5 67 2.9 NW 9 15 5 8 - - 0.0
25/01:00pm 12.4 9.4 6.2 66 2.9 NNW 11 17 6 9 - - 0.0
25/12:30pm 11.6 9.2 5.3 65 2.9 N 7 13 4 7 - - 0.0
25/12:00pm 12.7 10.6 5.8 63 3.2 NNE 6 13 3 7 - - 0.0
25/11:30am 10.9 9.0 5.0 67 2.7 NNE 4 11 2 6 - - 0.0
25/11:00am 11.1 9.3 5.2 67 2.7 NNE 4 7 2 4 - - 0.0
25/10:30am 11.4 10.2 6.3 71 2.4 NNE 2 7 1 4 - - 0.0
25/10:00am 10.4 8.3 5.6 72 2.2 N 6 13 3 7 - - 0.0
25/09:30am 10.3 8.6 5.7 73 2.1 NE 4 7 2 4 - - 0.0
25/09:00am 9.6 7.4 5.4 75 1.9 NE 6 9 3 5 - - 0.0
25/08:30am 9.1 6.8 5.7 79 1.6 NE 7 9 4 5 - - 0.0
25/08:00am 8.8 6.6 5.4 79 1.5 NE 6 11 3 6 - - 0.0
25/07:30am 8.5 6.1 5.3 80 1.4 ENE 7 9 4 5 - - 0.0
25/07:00am 8.5 5.7 5.1 79 1.5 E 9 13 5 7 - - 0.0
25/06:30am 8.4 5.2 5.0 79 1.5 E 11 15 6 8 - - 0.0
25/06:00am 8.3 5.1 4.9 79 1.5 E 11 17 6 9 - - 0.0
25/05:30am 8.3 4.7 4.9 79 1.5 E 13 19 7 10 - - 0.0
25/05:00am 8.2 5.7 5.0 80 1.4 NNE 7 15 4 8 - - 0.0
25/04:30am 8.2 6.3 5.0 80 1.4 NE 4 7 2 4 - - 0.0
25/04:00am 8.1 4.8 4.7 79 1.5 ENE 11 24 6 13 - - 0.0
25/03:30am 8.2 4.6 4.8 79 1.5 E 13 24 7 13 - - 0.0
25/03:00am 8.8 5.7 5.4 79 1.5 E 11 24 6 13 - - 0.0
25/02:30am 9.4 6.4 5.8 78 1.6 ESE 11 20 6 11 - - 0.0
25/02:00am 9.7 7.1 6.2 79 1.6 E 9 19 5 10 - - 0.0
25/01:30am 10.1 7.2 6.6 79 1.6 E 11 17 6 9 - - 0.0
25/01:00am 10.3 7.2 7.4 82 1.4 ESE 13 22 7 12 - - 0.0
25/12:30am 10.4 8.2 8.0 85 1.2 ESE 9 15 5 8 - - 0.0
25/12:00am 10.3 7.9 8.6 89 0.8 SSE 11 19 6 10 - - 0.0
 
Date/Time
CST
Temp
°C
App
Temp
°C
Dew
Point
°C
Rel
Hum
%
Delta-T
°C
Wind Press
QNH
hPa
Press
MSL
hPa
Rain since
9am
mm
Dir  Spd
km/h
Gust
km/h
Spd
kts
Gust
kts
24/11:30pm 9.5 7.9 8.7 95 0.4 ESE 7 7 4 4 - - 0.0
24/11:00pm 9.0 7.9 8.6 97 0.2 ESE 4 7 2 4 - - 0.0
24/10:30pm 9.1 7.6 8.5 96 0.3 ESE 6 6 3 3 - - 0.0
24/10:00pm 9.7 7.5 9.2 97 0.2 SE 11 15 6 8 - - 0.0
24/09:30pm 9.6 8.7 9.1 97 0.2 ESE 4 7 2 4 - - 0.0
24/09:00pm 10.3 9.5 9.8 97 0.3 SE 4 7 2 4 - - 0.0
24/08:30pm 10.5 10.6 10.2 98 0.2 CALM 0 0 0 0 - - 0.0
24/08:00pm 10.6 9.9 10.1 97 0.3 SSE 4 6 2 3 - - 0.0
24/07:30pm 10.5 9.2 9.9 96 0.3 SE 7 11 4 6 - - 0.0
24/07:00pm 10.8 9.0 9.4 91 0.7 S 9 13 5 7 - - 0.0
24/06:30pm 10.8 9.3 9.1 89 0.8 SSE 7 9 4 5 - - 0.0
24/06:00pm 11.7 9.4 9.1 84 1.3 SSE 11 13 6 7 - - 0.0
24/05:30pm 12.3 9.4 8.2 76 2.0 SSE 13 15 7 8 - - 0.0
24/05:00pm 12.6 10.3 7.5 71 2.5 SSE 9 17 5 9 - - 0.0
24/04:30pm 13.1 9.2 6.9 66 3.0 SE 17 22 9 12 - - 0.0
24/04:00pm 12.8 8.8 6.8 67 2.9 SSE 17 24 9 13 - - 0.0
24/03:30pm 13.3 9.1 7.3 67 2.9 SE 19 24 10 13 - - 0.0
24/03:00pm 13.2 9.9 8.1 71 2.5 S 15 20 8 11 - - 0.0
24/02:30pm 12.5 10.3 9.5 82 1.5 SSE 11 17 6 9 - - 0.0
24/02:00pm 12.9 9.4 8.6 75 2.2 S 17 28 9 15 - - 0.0
24/01:30pm 13.4 10.6 8.5 72 2.5 SSW 13 20 7 11 - - 0.0
24/01:00pm 13.4 10.7 7.4 67 2.9 SSE 11 20 6 11 - - 0.0
24/12:30pm 13.4 9.1 7.2 66 3.0 SSE 19 26 10 14 - - 0.0
24/12:00pm 13.1 10.9 7.8 70 2.6 S 9 15 5 8 - - 0.0
24/11:30am 12.8 9.5 8.1 73 2.3 SSE 15 24 8 13 - - 0.0
24/11:00am 13.0 9.7 7.9 71 2.5 SSE 15 20 8 11 - - 0.0
24/10:30am 12.9 9.3 6.7 66 3.0 S 15 24 8 13 - - 0.0
24/10:00am 12.8 8.7 7.9 72 2.4 SSE 19 30 10 16 - - 0.0
24/09:30am 12.7 10.2 8.4 75 2.1 SSE 11 15 6 8 - - 0.0
24/09:00am 12.3 10.0 7.4 72 2.4 S 9 13 5 7 - - 0.2
24/08:30am 11.9 9.3 7.8 76 2.0 S 11 15 6 8 - - 0.2
24/08:00am 11.7 8.7 7.6 76 2.0 SSE 13 20 7 11 - - 0.2
24/07:30am 11.5 8.6 8.0 79 1.7 SSE 13 19 7 10 - - 0.2
24/07:00am 11.4 8.6 8.4 82 1.5 S 13 19 7 10 - - 0.2
24/06:30am 11.3 8.6 9.0 86 1.1 S 13 19 7 10 - - 0.2
24/06:00am 11.0 9.2 10.7 98 0.2 S 11 19 6 10 - - 0.2
24/05:30am 11.0 9.6 10.8 99 0.1 SSW 9 17 5 9 - - 0.2
24/05:00am 10.8 9.5 10.0 95 0.4 S 7 13 4 7 - - 0.2
24/04:30am 10.5 8.9 8.8 89 0.8 S 7 9 4 5 - - 0.2
24/04:00am 11.2 9.7 8.6 84 1.3 S 6 7 3 4 - - 0.2
24/03:30am 12.0 10.0 8.8 81 1.6 S 9 15 5 8 - - 0.2
24/03:00am 12.0 10.4 8.7 80 1.6 S 7 11 4 6 - - 0.2
24/02:30am 11.8 10.4 9.4 85 1.2 S 7 17 4 9 - - 0.2
24/02:00am 11.4 10.2 10.3 93 0.6 S 7 13 4 7 - - 0.2
24/01:30am 11.4 9.9 10.5 94 0.5 S 9 15 5 8 - - 0.2
24/01:00am 12.0 10.5 9.2 83 1.4 S 7 13 4 7 - - 0.2
24/12:30am 12.2 10.3 9.0 81 1.6 S 9 15 5 8 - - 0.2
24/12:00am 12.2 10.3 8.9 80 1.7 S 9 13 5 7 - - 0.2
 
Date/Time
CST
Temp
°C
App
Temp
°C
Dew
Point
°C
Rel
Hum
%
Delta-T
°C
Wind Press
QNH
hPa
Press
MSL
hPa
Rain since
9am
mm
Dir  Spd
km/h
Gust
km/h
Spd
kts
Gust
kts
23/11:30pm 12.0 10.3 8.3 78 1.8 S 7 13 4 7 - - 0.2
23/11:00pm 12.2 10.4 8.1 76 2.0 SSW 7 15 4 8 - - 0.2
23/10:30pm 12.0 9.2 8.7 80 1.6 SSE 13 22 7 12 - - 0.2
23/10:00pm 11.6 10.4 10.2 91 0.7 S 7 13 4 7 - - 0.2
23/09:30pm 11.1 10.0 9.9 92 0.6 S 6 9 3 5 - - 0.2
23/09:00pm 11.1 10.3 9.7 91 0.7 SSW 4 7 2 4 - - 0.2
23/08:30pm 10.5 9.6 9.3 92 0.6 SSW 4 6 2 3 - - 0.2
23/08:00pm 10.5 9.1 9.6 94 0.5 SSE 7 9 4 5 - - 0.2
23/07:30pm 11.1 9.1 10.0 93 0.6 SSE 11 15 6 8 - - 0.2
23/07:00pm 11.2 10.0 10.3 94 0.5 S 7 13 4 7 - - 0.2
23/06:30pm 12.0 10.0 10.2 89 0.9 SSE 11 17 6 9 - - 0.2
23/06:00pm 12.1 10.4 9.7 85 1.2 S 9 15 5 8 - - 0.2
23/05:30pm 11.8 9.7 9.9 88 1.0 SSE 11 17 6 9 - - 0.2
23/05:00pm 12.1 9.2 11.0 93 0.6 S 17 22 9 12 - - 0.2
23/04:30pm 12.5 10.2 11.6 94 0.5 S 15 22 8 12 - - 0.2
23/04:00pm 12.9 10.3 12.0 94 0.5 S 17 26 9 14 - - 0.0
23/03:30pm 14.3 12.3 11.6 84 1.4 S 13 20 7 11 - - 0.0
23/03:00pm 13.7 11.0 11.8 88 1.0 S 17 32 9 17 - - 0.0
23/02:30pm 14.7 12.8 11.8 83 1.6 S 13 20 7 11 - - 0.0
23/02:00pm 14.9 12.2 11.7 81 1.7 S 17 24 9 13 - - 0.0
23/01:30pm 14.2 11.9 11.9 86 1.2 S 15 24 8 13 - - 0.0
23/01:00pm 15.0 12.8 12.0 82 1.6 SSE 15 20 8 11 - - 0.0
23/12:30pm 14.6 11.7 11.0 79 1.9 S 17 24 9 13 - - 0.0
23/12:00pm 15.0 13.5 11.8 81 1.7 SSW 11 20 6 11 - - 0.0
23/11:30am 15.2 12.5 11.8 80 1.8 S 17 26 9 14 - - 0.0
23/11:00am 14.1 11.8 11.6 85 1.3 S 15 24 8 13 - - 0.0

Latest Capital City Observations: Canberra | Sydney | Melbourne | Brisbane | Adelaide | Perth | Hobart | Darwin

Other formats

Comma delimited format used in spreadsheet applications
http://www.bom.gov.au/fwo/IDS60901/IDS60901.94808.axf

JavaScript Object Notation format (JSON) in row-major order
http://www.bom.gov.au/fwo/IDS60901/IDS60901.94808.json

Data quality

Most of these data are generated automatically and are frequently updated. Quality checks on data are not normally performed. It is possible for incorrect values to appear. Refer to information at About Latest Weather Observations and please check the disclaimer before using these data.